sensor_id;sensor_type;location;lat;lon;timestamp;P1;durP1;ratioP1;P2;durP2;ratioP2
20593;SDS011;10455;48.732;10.266;2023-11-18T00:02:33;1.00;;;1.00;;
20593;SDS011;10455;48.732;10.266;2023-11-18T00:07:35;1.00;;;1.00;;
20593;SDS011;10455;48.732;10.266;2023-11-18T00:12:37;1.00;;;1.00;;
20593;SDS011;10455;48.732;10.266;2023-11-18T00:17:42;1.00;;;1.00;;
20593;SDS011;10455;48.732;10.266;2023-11-18T00:22:44;1.00;;;1.00;;
20593;SDS011;10455;48.732;10.266;2023-11-18T00:27:46;1.00;;;1.00;;
20593;SDS011;10455;48.732;10.266;2023-11-18T00:32:49;1.10;;;1.10;;
20593;SDS011;10455;48.732;10.266;2023-11-18T00:37:51;1.10;;;1.10;;
20593;SDS011;10455;48.732;10.266;2023-11-18T00:42:53;1.00;;;1.00;;
20593;SDS011;10455;48.732;10.266;2023-11-18T00:47:56;1.00;;;1.00;;
20593;SDS011;10455;48.732;10.266;2023-11-18T00:52:58;1.00;;;1.00;;
20593;SDS011;10455;48.732;10.266;2023-11-18T00:58:00;1.00;;;1.00;;
20593;SDS011;10455;48.732;10.266;2023-11-18T01:03:04;1.10;;;1.10;;
20593;SDS011;10455;48.732;10.266;2023-11-18T01:08:06;1.10;;;1.10;;
20593;SDS011;10455;48.732;10.266;2023-11-18T01:13:08;1.10;;;1.10;;
20593;SDS011;10455;48.732;10.266;2023-11-18T01:18:12;1.00;;;1.00;;
20593;SDS011;10455;48.732;10.266;2023-11-18T01:23:14;1.10;;;1.10;;
20593;SDS011;10455;48.732;10.266;2023-11-18T01:28:15;1.00;;;1.00;;
20593;SDS011;10455;48.732;10.266;2023-11-18T01:33:19;1.00;;;1.00;;
20593;SDS011;10455;48.732;10.266;2023-11-18T01:38:21;1.07;;;1.07;;
20593;SDS011;10455;48.732;10.266;2023-11-18T01:43:23;1.03;;;1.03;;
20593;SDS011;10455;48.732;10.266;2023-11-18T01:48:27;1.10;;;1.10;;
20593;SDS011;10455;48.732;10.266;2023-11-18T01:53:30;3.47;;;3.37;;
20593;SDS011;10455;48.732;10.266;2023-11-18T01:58:33;1.00;;;1.00;;
20593;SDS011;10455;48.732;10.266;2023-11-18T02:03:37;1.00;;;1.00;;
20593;SDS011;10455;48.732;10.266;2023-11-18T02:08:42;0.90;;;0.90;;
20593;SDS011;10455;48.732;10.266;2023-11-18T02:13:44;1.00;;;1.00;;
20593;SDS011;10455;48.732;10.266;2023-11-18T02:18:50;1.00;;;1.00;;
20593;SDS011;10455;48.732;10.266;2023-11-18T02:23:54;1.00;;;1.00;;
20593;SDS011;10455;48.732;10.266;2023-11-18T02:28:57;0.90;;;0.90;;
20593;SDS011;10455;48.732;10.266;2023-11-18T02:34:00;1.10;;;1.10;;
20593;SDS011;10455;48.732;10.266;2023-11-18T02:39:08;1.07;;;1.07;;
20593;SDS011;10455;48.732;10.266;2023-11-18T02:44:18;1.10;;;1.10;;
20593;SDS011;10455;48.732;10.266;2023-11-18T02:49:23;1.00;;;1.00;;
20593;SDS011;10455;48.732;10.266;2023-11-18T02:54:25;1.00;;;1.00;;
20593;SDS011;10455;48.732;10.266;2023-11-18T02:59:28;0.97;;;0.97;;
20593;SDS011;10455;48.732;10.266;2023-11-18T03:04:31;1.00;;;1.00;;
20593;SDS011;10455;48.732;10.266;2023-11-18T03:09:34;1.10;;;1.10;;
20593;SDS011;10455;48.732;10.266;2023-11-18T03:14:39;0.90;;;0.90;;
20593;SDS011;10455;48.732;10.266;2023-11-18T03:19:42;1.00;;;1.00;;
20593;SDS011;10455;48.732;10.266;2023-11-18T03:24:43;1.00;;;1.00;;
20593;SDS011;10455;48.732;10.266;2023-11-18T03:29:47;1.00;;;1.00;;
20593;SDS011;10455;48.732;10.266;2023-11-18T03:34:49;1.00;;;1.00;;
20593;SDS011;10455;48.732;10.266;2023-11-18T03:39:50;1.00;;;1.00;;
20593;SDS011;10455;48.732;10.266;2023-11-18T03:44:54;1.00;;;1.00;;
20593;SDS011;10455;48.732;10.266;2023-11-18T03:49:56;1.10;;;1.10;;
20593;SDS011;10455;48.732;10.266;2023-11-18T03:54:57;1.10;;;1.10;;
20593;SDS011;10455;48.732;10.266;2023-11-18T04:00:01;0.93;;;0.93;;
20593;SDS011;10455;48.732;10.266;2023-11-18T04:05:04;1.00;;;1.00;;
20593;SDS011;10455;48.732;10.266;2023-11-18T04:10:08;0.90;;;0.90;;
20593;SDS011;10455;48.732;10.266;2023-11-18T04:15:12;1.00;;;1.00;;
20593;SDS011;10455;48.732;10.266;2023-11-18T04:20:14;1.00;;;1.00;;
20593;SDS011;10455;48.732;10.266;2023-11-18T04:25:16;1.00;;;1.00;;
20593;SDS011;10455;48.732;10.266;2023-11-18T04:30:19;1.00;;;1.00;;
20593;SDS011;10455;48.732;10.266;2023-11-18T04:35:21;1.00;;;1.00;;
20593;SDS011;10455;48.732;10.266;2023-11-18T04:40:24;1.00;;;1.00;;
20593;SDS011;10455;48.732;10.266;2023-11-18T04:45:28;1.00;;;1.00;;
20593;SDS011;10455;48.732;10.266;2023-11-18T04:50:30;1.00;;;1.00;;
20593;SDS011;10455;48.732;10.266;2023-11-18T04:55:33;1.00;;;1.00;;
20593;SDS011;10455;48.732;10.266;2023-11-18T05:00:36;0.90;;;0.90;;
20593;SDS011;10455;48.732;10.266;2023-11-18T05:05:39;0.93;;;0.93;;
20593;SDS011;10455;48.732;10.266;2023-11-18T05:10:45;1.10;;;1.10;;
20593;SDS011;10455;48.732;10.266;2023-11-18T05:15:49;1.00;;;1.00;;
20593;SDS011;10455;48.732;10.266;2023-11-18T05:20:54;1.00;;;1.00;;
20593;SDS011;10455;48.732;10.266;2023-11-18T05:25:57;1.00;;;1.00;;
20593;SDS011;10455;48.732;10.266;2023-11-18T05:31:01;1.00;;;1.00;;
20593;SDS011;10455;48.732;10.266;2023-11-18T05:36:04;1.00;;;1.00;;
20593;SDS011;10455;48.732;10.266;2023-11-18T05:41:06;1.10;;;1.10;;
20593;SDS011;10455;48.732;10.266;2023-11-18T05:46:18;1.00;;;1.00;;
20593;SDS011;10455;48.732;10.266;2023-11-18T05:51:23;1.00;;;1.00;;
20593;SDS011;10455;48.732;10.266;2023-11-18T05:56:26;0.90;;;0.90;;
20593;SDS011;10455;48.732;10.266;2023-11-18T06:01:30;1.10;;;1.10;;
20593;SDS011;10455;48.732;10.266;2023-11-18T06:06:31;1.00;;;1.00;;
20593;SDS011;10455;48.732;10.266;2023-11-18T06:11:34;1.00;;;1.00;;
20593;SDS011;10455;48.732;10.266;2023-11-18T06:16:38;1.10;;;1.10;;
20593;SDS011;10455;48.732;10.266;2023-11-18T06:21:40;1.20;;;1.20;;
20593;SDS011;10455;48.732;10.266;2023-11-18T06:26:42;1.10;;;1.10;;
20593;SDS011;10455;48.732;10.266;2023-11-18T06:31:46;1.10;;;1.10;;
20593;SDS011;10455;48.732;10.266;2023-11-18T06:36:48;1.10;;;1.10;;
20593;SDS011;10455;48.732;10.266;2023-11-18T06:41:50;1.10;;;1.10;;
20593;SDS011;10455;48.732;10.266;2023-11-18T06:46:54;1.20;;;1.20;;
20593;SDS011;10455;48.732;10.266;2023-11-18T06:51:56;1.20;;;1.20;;
20593;SDS011;10455;48.732;10.266;2023-11-18T06:56:58;1.20;;;1.20;;
20593;SDS011;10455;48.732;10.266;2023-11-18T07:02:02;1.30;;;1.30;;
20593;SDS011;10455;48.732;10.266;2023-11-18T07:07:06;1.20;;;1.20;;
20593;SDS011;10455;48.732;10.266;2023-11-18T07:12:09;1.20;;;1.20;;
20593;SDS011;10455;48.732;10.266;2023-11-18T07:17:12;1.20;;;1.20;;
20593;SDS011;10455;48.732;10.266;2023-11-18T07:22:14;1.20;;;1.20;;
20593;SDS011;10455;48.732;10.266;2023-11-18T07:27:16;1.10;;;1.10;;
20593;SDS011;10455;48.732;10.266;2023-11-18T07:32:19;1.10;;;1.10;;
20593;SDS011;10455;48.732;10.266;2023-11-18T07:37:21;1.20;;;1.20;;
20593;SDS011;10455;48.732;10.266;2023-11-18T07:42:23;1.00;;;1.00;;
20593;SDS011;10455;48.732;10.266;2023-11-18T07:47:29;1.10;;;1.10;;
20593;SDS011;10455;48.732;10.266;2023-11-18T07:52:32;1.10;;;1.10;;
20593;SDS011;10455;48.732;10.266;2023-11-18T07:57:36;1.13;;;1.13;;
20593;SDS011;10455;48.732;10.266;2023-11-18T08:02:39;1.10;;;1.10;;
20593;SDS011;10455;48.732;10.266;2023-11-18T08:07:41;1.10;;;1.10;;
20593;SDS011;10455;48.732;10.266;2023-11-18T08:12:45;1.10;;;1.10;;
20593;SDS011;10455;48.732;10.266;2023-11-18T08:17:49;1.03;;;1.03;;
20593;SDS011;10455;48.732;10.266;2023-11-18T08:22:52;1.00;;;1.00;;
20593;SDS011;10455;48.732;10.266;2023-11-18T08:27:55;1.10;;;1.10;;
20593;SDS011;10455;48.732;10.266;2023-11-18T08:32:58;1.20;;;1.20;;
20593;SDS011;10455;48.732;10.266;2023-11-18T08:38:00;1.17;;;1.17;;
20593;SDS011;10455;48.732;10.266;2023-11-18T08:43:04;1.13;;;1.13;;
20593;SDS011;10455;48.732;10.266;2023-11-18T08:48:09;1.20;;;1.20;;
20593;SDS011;10455;48.732;10.266;2023-11-18T08:53:11;1.10;;;1.10;;
20593;SDS011;10455;48.732;10.266;2023-11-18T08:58:12;1.10;;;1.10;;
20593;SDS011;10455;48.732;10.266;2023-11-18T09:03:21;1.20;;;1.20;;
20593;SDS011;10455;48.732;10.266;2023-11-18T09:08:32;1.20;;;1.20;;
20593;SDS011;10455;48.732;10.266;2023-11-18T09:13:38;1.10;;;1.10;;
20593;SDS011;10455;48.732;10.266;2023-11-18T09:18:42;1.20;;;1.20;;
20593;SDS011;10455;48.732;10.266;2023-11-18T09:23:45;1.20;;;1.20;;
20593;SDS011;10455;48.732;10.266;2023-11-18T09:28:48;4.90;;;4.43;;
20593;SDS011;10455;48.732;10.266;2023-11-18T09:33:54;1.10;;;1.10;;
20593;SDS011;10455;48.732;10.266;2023-11-18T09:38:57;1.30;;;1.30;;
20593;SDS011;10455;48.732;10.266;2023-11-18T09:43:59;7.30;;;6.70;;
20593;SDS011;10455;48.732;10.266;2023-11-18T09:49:06;5.67;;;5.20;;
20593;SDS011;10455;48.732;10.266;2023-11-18T09:54:27;7.20;;;6.20;;
20593;SDS011;10455;48.732;10.266;2023-11-18T09:59:32;6.00;;;5.40;;
20593;SDS011;10455;48.732;10.266;2023-11-18T10:04:46;5.97;;;5.43;;
20593;SDS011;10455;48.732;10.266;2023-11-18T10:09:57;6.70;;;6.10;;
20593;SDS011;10455;48.732;10.266;2023-11-18T10:14:59;6.07;;;5.55;;
20593;SDS011;10455;48.732;10.266;2023-11-18T10:20:06;5.07;;;4.68;;
20593;SDS011;10455;48.732;10.266;2023-11-18T10:25:12;6.47;;;5.43;;
20593;SDS011;10455;48.732;10.266;2023-11-18T10:30:25;8.00;;;6.70;;
20593;SDS011;10455;48.732;10.266;2023-11-18T10:35:29;5.32;;;4.72;;
20593;SDS011;10455;48.732;10.266;2023-11-18T10:40:32;5.70;;;5.20;;
20593;SDS011;10455;48.732;10.266;2023-11-18T10:45:36;5.30;;;4.82;;
20593;SDS011;10455;48.732;10.266;2023-11-18T10:50:42;6.23;;;4.90;;
20593;SDS011;10455;48.732;10.266;2023-11-18T10:55:46;8.43;;;7.73;;
20593;SDS011;10455;48.732;10.266;2023-11-18T11:00:50;6.80;;;5.70;;
20593;SDS011;10455;48.732;10.266;2023-11-18T11:05:57;5.20;;;4.80;;
20593;SDS011;10455;48.732;10.266;2023-11-18T11:11:00;5.73;;;5.33;;
20593;SDS011;10455;48.732;10.266;2023-11-18T11:16:08;8.30;;;5.97;;
20593;SDS011;10455;48.732;10.266;2023-11-18T11:21:15;5.57;;;5.07;;
20593;SDS011;10455;48.732;10.266;2023-11-18T11:26:33;6.20;;;5.70;;
20593;SDS011;10455;48.732;10.266;2023-11-18T11:31:41;6.53;;;6.00;;
20593;SDS011;10455;48.732;10.266;2023-11-18T11:36:50;7.13;;;6.47;;
20593;SDS011;10455;48.732;10.266;2023-11-18T11:41:52;8.20;;;7.40;;
20593;SDS011;10455;48.732;10.266;2023-11-18T11:46:56;9.90;;;8.90;;
20593;SDS011;10455;48.732;10.266;2023-11-18T11:52:02;9.60;;;8.60;;
20593;SDS011;10455;48.732;10.266;2023-11-18T11:57:08;9.30;;;8.37;;
20593;SDS011;10455;48.732;10.266;2023-11-18T12:02:14;9.40;;;8.60;;
20593;SDS011;10455;48.732;10.266;2023-11-18T12:07:20;10.23;;;9.23;;
20593;SDS011;10455;48.732;10.266;2023-11-18T12:12:23;10.20;;;9.17;;
20593;SDS011;10455;48.732;10.266;2023-11-18T12:17:27;11.50;;;10.50;;
20593;SDS011;10455;48.732;10.266;2023-11-18T12:28:09;12.27;;;11.07;;
20593;SDS011;10455;48.732;10.266;2023-11-18T12:33:11;12.83;;;11.63;;
20593;SDS011;10455;48.732;10.266;2023-11-18T12:38:36;11.93;;;10.83;;
20593;SDS011;10455;48.732;10.266;2023-11-18T12:44:10;17.30;;;15.50;;
20593;SDS011;10455;48.732;10.266;2023-11-18T12:49:19;13.87;;;12.47;;
20593;SDS011;10455;48.732;10.266;2023-11-18T12:54:25;14.17;;;12.10;;
20593;SDS011;10455;48.732;10.266;2023-11-18T12:59:28;14.90;;;12.83;;
20593;SDS011;10455;48.732;10.266;2023-11-18T13:04:30;13.53;;;11.43;;
20593;SDS011;10455;48.732;10.266;2023-11-18T13:09:35;11.90;;;10.70;;
20593;SDS011;10455;48.732;10.266;2023-11-18T13:14:38;11.77;;;10.57;;
20593;SDS011;10455;48.732;10.266;2023-11-18T13:19:42;17.27;;;12.53;;
20593;SDS011;10455;48.732;10.266;2023-11-18T13:24:46;13.10;;;11.77;;
20593;SDS011;10455;48.732;10.266;2023-11-18T13:29:50;14.27;;;12.77;;
20593;SDS011;10455;48.732;10.266;2023-11-18T13:34:53;13.37;;;11.73;;
20593;SDS011;10455;48.732;10.266;2023-11-18T13:39:57;17.13;;;13.80;;
20593;SDS011;10455;48.732;10.266;2023-11-18T13:45:00;15.57;;;13.97;;
20593;SDS011;10455;48.732;10.266;2023-11-18T13:50:08;14.60;;;13.10;;
20593;SDS011;10455;48.732;10.266;2023-11-18T13:55:15;14.37;;;12.97;;
20593;SDS011;10455;48.732;10.266;2023-11-18T14:00:26;15.40;;;13.77;;
20593;SDS011;10455;48.732;10.266;2023-11-18T14:05:28;23.93;;;18.30;;
20593;SDS011;10455;48.732;10.266;2023-11-18T14:10:36;17.90;;;16.00;;
20593;SDS011;10455;48.732;10.266;2023-11-18T14:15:40;17.37;;;15.30;;
20593;SDS011;10455;48.732;10.266;2023-11-18T14:20:45;19.50;;;15.57;;
20593;SDS011;10455;48.732;10.266;2023-11-18T14:25:49;16.43;;;14.27;;
20593;SDS011;10455;48.732;10.266;2023-11-18T14:30:51;22.97;;;20.50;;
20593;SDS011;10455;48.732;10.266;2023-11-18T14:35:53;27.03;;;22.37;;
20593;SDS011;10455;48.732;10.266;2023-11-18T14:40:57;23.87;;;20.07;;
20593;SDS011;10455;48.732;10.266;2023-11-18T14:46:00;24.13;;;18.30;;
20593;SDS011;10455;48.732;10.266;2023-11-18T14:51:04;21.53;;;19.20;;
20593;SDS011;10455;48.732;10.266;2023-11-18T14:56:09;21.40;;;18.13;;
20593;SDS011;10455;48.732;10.266;2023-11-18T15:01:11;19.73;;;17.37;;
20593;SDS011;10455;48.732;10.266;2023-11-18T15:06:13;18.17;;;15.93;;
20593;SDS011;10455;48.732;10.266;2023-11-18T15:11:21;21.40;;;16.23;;
20593;SDS011;10455;48.732;10.266;2023-11-18T15:16:24;18.63;;;16.67;;
20593;SDS011;10455;48.732;10.266;2023-11-18T15:21:26;19.83;;;17.03;;
20593;SDS011;10455;48.732;10.266;2023-11-18T15:26:31;20.00;;;17.43;;
20593;SDS011;10455;48.732;10.266;2023-11-18T15:31:33;19.23;;;17.10;;
20593;SDS011;10455;48.732;10.266;2023-11-18T15:36:39;21.97;;;16.40;;
20593;SDS011;10455;48.732;10.266;2023-11-18T15:41:46;18.90;;;16.20;;
20593;SDS011;10455;48.732;10.266;2023-11-18T15:46:48;21.10;;;18.40;;
20593;SDS011;10455;48.732;10.266;2023-11-18T15:51:50;20.67;;;16.97;;
20593;SDS011;10455;48.732;10.266;2023-11-18T15:56:53;42.13;;;31.67;;
20593;SDS011;10455;48.732;10.266;2023-11-18T16:01:56;20.53;;;17.53;;
20593;SDS011;10455;48.732;10.266;2023-11-18T16:06:57;26.30;;;21.47;;
20593;SDS011;10455;48.732;10.266;2023-11-18T16:12:01;34.13;;;30.30;;
20593;SDS011;10455;48.732;10.266;2023-11-18T16:17:04;22.53;;;19.73;;
20593;SDS011;10455;48.732;10.266;2023-11-18T16:22:07;23.17;;;18.40;;
20593;SDS011;10455;48.732;10.266;2023-11-18T16:27:10;27.43;;;21.20;;
20593;SDS011;10455;48.732;10.266;2023-11-18T16:32:12;22.27;;;18.80;;
20593;SDS011;10455;48.732;10.266;2023-11-18T16:37:14;36.87;;;27.47;;
20593;SDS011;10455;48.732;10.266;2023-11-18T16:42:18;39.67;;;28.37;;
20593;SDS011;10455;48.732;10.266;2023-11-18T16:47:23;22.47;;;19.30;;
20593;SDS011;10455;48.732;10.266;2023-11-18T16:52:25;24.10;;;18.07;;
20593;SDS011;10455;48.732;10.266;2023-11-18T16:57:30;43.37;;;29.17;;
20593;SDS011;10455;48.732;10.266;2023-11-18T17:02:34;24.90;;;20.60;;
20593;SDS011;10455;48.732;10.266;2023-11-18T17:07:36;22.83;;;19.10;;
20593;SDS011;10455;48.732;10.266;2023-11-18T17:12:40;27.47;;;20.33;;
20593;SDS011;10455;48.732;10.266;2023-11-18T17:17:43;23.97;;;20.83;;
20593;SDS011;10455;48.732;10.266;2023-11-18T17:22:46;23.90;;;21.10;;
20593;SDS011;10455;48.732;10.266;2023-11-18T17:27:49;23.17;;;19.00;;
20593;SDS011;10455;48.732;10.266;2023-11-18T17:32:52;24.27;;;20.30;;
20593;SDS011;10455;48.732;10.266;2023-11-18T17:37:55;31.60;;;25.70;;
20593;SDS011;10455;48.732;10.266;2023-11-18T17:42:58;36.93;;;28.17;;
20593;SDS011;10455;48.732;10.266;2023-11-18T17:48:00;41.70;;;27.40;;
20593;SDS011;10455;48.732;10.266;2023-11-18T17:53:06;31.83;;;25.07;;
20593;SDS011;10455;48.732;10.266;2023-11-18T17:58:10;35.87;;;25.83;;
20593;SDS011;10455;48.732;10.266;2023-11-18T18:03:12;29.63;;;23.57;;
20593;SDS011;10455;48.732;10.266;2023-11-18T18:08:15;32.23;;;22.83;;
20593;SDS011;10455;48.732;10.266;2023-11-18T18:13:18;32.43;;;25.97;;
20593;SDS011;10455;48.732;10.266;2023-11-18T18:18:21;23.77;;;20.60;;
20593;SDS011;10455;48.732;10.266;2023-11-18T18:23:23;27.70;;;21.67;;
20593;SDS011;10455;48.732;10.266;2023-11-18T18:28:26;24.43;;;20.53;;
20593;SDS011;10455;48.732;10.266;2023-11-18T18:33:28;24.67;;;19.80;;
20593;SDS011;10455;48.732;10.266;2023-11-18T18:38:31;19.83;;;17.63;;
20593;SDS011;10455;48.732;10.266;2023-11-18T18:43:34;19.03;;;17.13;;
20593;SDS011;10455;48.732;10.266;2023-11-18T18:48:36;17.33;;;15.63;;
20593;SDS011;10455;48.732;10.266;2023-11-18T18:53:38;15.23;;;13.73;;
20593;SDS011;10455;48.732;10.266;2023-11-18T18:58:41;14.33;;;12.93;;
20593;SDS011;10455;48.732;10.266;2023-11-18T19:03:43;16.03;;;14.30;;
20593;SDS011;10455;48.732;10.266;2023-11-18T19:08:45;17.73;;;15.70;;
20593;SDS011;10455;48.732;10.266;2023-11-18T19:13:48;21.77;;;17.53;;
20593;SDS011;10455;48.732;10.266;2023-11-18T19:18:50;26.10;;;21.17;;
20593;SDS011;10455;48.732;10.266;2023-11-18T19:23:53;22.27;;;19.10;;
20593;SDS011;10455;48.732;10.266;2023-11-18T19:28:56;21.47;;;19.20;;
20593;SDS011;10455;48.732;10.266;2023-11-18T19:33:59;18.83;;;16.83;;
20593;SDS011;10455;48.732;10.266;2023-11-18T19:39:02;20.10;;;17.70;;
20593;SDS011;10455;48.732;10.266;2023-11-18T19:44:08;18.63;;;16.40;;
20593;SDS011;10455;48.732;10.266;2023-11-18T19:49:11;19.70;;;16.60;;
20593;SDS011;10455;48.732;10.266;2023-11-18T19:54:13;17.90;;;16.00;;
20593;SDS011;10455;48.732;10.266;2023-11-18T19:59:17;16.63;;;14.93;;
20593;SDS011;10455;48.732;10.266;2023-11-18T20:04:19;19.33;;;15.73;;
20593;SDS011;10455;48.732;10.266;2023-11-18T20:09:20;13.40;;;12.13;;
20593;SDS011;10455;48.732;10.266;2023-11-18T20:14:24;13.10;;;11.80;;
20593;SDS011;10455;48.732;10.266;2023-11-18T20:19:26;14.67;;;13.00;;
20593;SDS011;10455;48.732;10.266;2023-11-18T20:24:28;15.93;;;14.30;;
20593;SDS011;10455;48.732;10.266;2023-11-18T20:29:32;15.10;;;13.60;;
20593;SDS011;10455;48.732;10.266;2023-11-18T20:34:33;14.53;;;13.07;;
20593;SDS011;10455;48.732;10.266;2023-11-18T20:39:35;14.67;;;12.87;;
20593;SDS011;10455;48.732;10.266;2023-11-18T20:44:39;14.83;;;13.43;;
20593;SDS011;10455;48.732;10.266;2023-11-18T20:49:41;18.10;;;16.30;;
20593;SDS011;10455;48.732;10.266;2023-11-18T20:54:43;15.10;;;13.60;;
20593;SDS011;10455;48.732;10.266;2023-11-18T20:59:47;17.17;;;14.77;;
20593;SDS011;10455;48.732;10.266;2023-11-18T21:04:49;17.47;;;15.17;;
20593;SDS011;10455;48.732;10.266;2023-11-18T21:09:51;20.43;;;18.37;;
20593;SDS011;10455;48.732;10.266;2023-11-18T21:14:54;18.33;;;16.57;;
20593;SDS011;10455;48.732;10.266;2023-11-18T21:19:56;21.07;;;17.53;;
20593;SDS011;10455;48.732;10.266;2023-11-18T21:24:58;19.83;;;17.67;;
20593;SDS011;10455;48.732;10.266;2023-11-18T21:30:02;22.60;;;20.27;;
20593;SDS011;10455;48.732;10.266;2023-11-18T21:35:05;27.73;;;24.73;;
20593;SDS011;10455;48.732;10.266;2023-11-18T21:40:07;25.47;;;22.73;;
20593;SDS011;10455;48.732;10.266;2023-11-18T21:45:13;27.37;;;24.47;;
20593;SDS011;10455;48.732;10.266;2023-11-18T21:50:15;30.57;;;25.00;;
20593;SDS011;10455;48.732;10.266;2023-11-18T21:55:17;27.40;;;23.97;;
20593;SDS011;10455;48.732;10.266;2023-11-18T22:00:20;35.00;;;29.33;;
20593;SDS011;10455;48.732;10.266;2023-11-18T22:05:24;39.27;;;31.97;;
20593;SDS011;10455;48.732;10.266;2023-11-18T22:10:26;32.20;;;27.03;;
20593;SDS011;10455;48.732;10.266;2023-11-18T22:15:29;34.00;;;28.90;;
20593;SDS011;10455;48.732;10.266;2023-11-18T22:20:32;38.60;;;30.50;;
20593;SDS011;10455;48.732;10.266;2023-11-18T22:25:36;38.13;;;30.63;;
20593;SDS011;10455;48.732;10.266;2023-11-18T22:30:40;38.53;;;31.23;;
20593;SDS011;10455;48.732;10.266;2023-11-18T22:35:41;42.70;;;31.23;;
20593;SDS011;10455;48.732;10.266;2023-11-18T22:40:43;42.50;;;32.13;;
20593;SDS011;10455;48.732;10.266;2023-11-18T22:45:47;43.37;;;32.33;;
20593;SDS011;10455;48.732;10.266;2023-11-18T22:50:50;45.43;;;33.60;;
20593;SDS011;10455;48.732;10.266;2023-11-18T22:55:52;44.27;;;33.90;;
20593;SDS011;10455;48.732;10.266;2023-11-18T23:00:55;47.10;;;35.60;;
20593;SDS011;10455;48.732;10.266;2023-11-18T23:05:57;46.73;;;35.30;;
20593;SDS011;10455;48.732;10.266;2023-11-18T23:10:59;46.23;;;35.57;;
20593;SDS011;10455;48.732;10.266;2023-11-18T23:16:03;44.97;;;34.37;;
20593;SDS011;10455;48.732;10.266;2023-11-18T23:21:11;44.67;;;33.77;;
20593;SDS011;10455;48.732;10.266;2023-11-18T23:26:15;47.27;;;35.60;;
20593;SDS011;10455;48.732;10.266;2023-11-18T23:31:19;42.03;;;33.53;;
20593;SDS011;10455;48.732;10.266;2023-11-18T23:36:23;45.40;;;33.93;;
20593;SDS011;10455;48.732;10.266;2023-11-18T23:41:25;47.03;;;35.27;;
20593;SDS011;10455;48.732;10.266;2023-11-18T23:46:30;54.57;;;36.57;;
20593;SDS011;10455;48.732;10.266;2023-11-18T23:51:32;50.73;;;36.47;;
20593;SDS011;10455;48.732;10.266;2023-11-18T23:56:33;51.57;;;36.50;;
